createdAt,value
2023-01-29T00:01:53.724Z,103156.59
2023-01-29T00:04:20.691Z,103155.66
2023-01-29T00:06:47.150Z,103149.59
2023-01-29T00:09:14.117Z,103146.19
2023-01-29T00:11:41.336Z,103134.19
2023-01-29T00:14:07.921Z,103126.44
2023-01-29T00:16:34.352Z,103123.78
2023-01-29T00:19:02.173Z,103122.97
2023-01-29T00:21:31.018Z,103112.72
2023-01-29T00:23:58.195Z,103106.72
2023-01-29T00:26:25.143Z,103110.16
2023-01-29T00:28:51.611Z,103102.50
2023-01-29T00:31:20.247Z,103102.50
2023-01-29T00:33:47.771Z,103109.28
2023-01-29T00:36:15.779Z,103119.56
2023-01-29T00:38:42.644Z,103110.16
2023-01-29T00:41:30.176Z,103115.28
2023-01-29T00:44:15.443Z,103115.28
2023-01-29T00:46:41.941Z,103110.16
2023-01-29T00:49:09.104Z,103111.78
2023-01-29T00:51:36.778Z,103107.50
2023-01-29T00:54:04.346Z,103105.75
2023-01-29T00:56:31.047Z,103104.94
2023-01-29T00:58:57.508Z,103097.25
2023-01-29T01:01:43.149Z,103090.44
2023-01-29T01:04:11.345Z,103104.94
2023-01-29T01:06:39.188Z,103100.69
2023-01-29T01:09:25.185Z,103093.81
2023-01-29T01:11:51.773Z,103097.31
2023-01-29T01:14:19.696Z,103103.19
2023-01-29T01:16:47.650Z,103090.44
2023-01-29T01:19:18.449Z,103084.41
2023-01-29T01:21:46.981Z,103081.00
2023-01-29T01:24:13.662Z,103085.31
2023-01-29T01:26:40.136Z,103083.56
2023-01-29T01:29:06.844Z,103090.44
2023-01-29T01:31:33.409Z,103091.25
2023-01-29T01:33:59.898Z,103095.50
2023-01-29T01:36:26.298Z,103101.53
2023-01-29T01:38:52.693Z,103106.56
2023-01-29T01:41:21.742Z,103106.56
2023-01-29T01:44:00.104Z,103101.44
2023-01-29T01:46:33.699Z,103100.56
2023-01-29T01:49:11.877Z,103106.50
2023-01-29T01:51:45.158Z,103099.66
2023-01-29T01:54:21.171Z,103097.16
2023-01-29T01:56:55.432Z,103104.72
2023-01-29T01:59:22.937Z,103105.63
2023-01-29T02:01:53.931Z,103101.31
2023-01-29T02:04:42.527Z,103094.47
2023-01-29T02:07:31.415Z,103099.66
2023-01-29T02:10:09.466Z,103103.88
2023-01-29T02:12:37.367Z,103100.41
2023-01-29T02:15:04.590Z,103097.03
2023-01-29T02:17:32.237Z,103091.03
2023-01-29T02:20:20.849Z,103101.31
2023-01-29T02:23:23.320Z,103092.78
2023-01-29T02:26:26.773Z,103099.59
2023-01-29T02:28:53.807Z,103101.31
2023-01-29T02:31:41.183Z,103100.41
2023-01-29T02:34:29.483Z,103102.16
2023-01-29T02:37:08.523Z,103109.00
2023-01-29T02:39:51.784Z,103121.84
2023-01-29T02:42:27.261Z,103119.25
2023-01-29T02:45:04.359Z,103117.63
2023-01-29T02:47:50.030Z,103115.94
2023-01-29T02:50:37.456Z,103124.47
2023-01-29T02:53:21.649Z,103121.09
2023-01-29T02:56:05.726Z,103115.94
2023-01-29T02:59:00.333Z,103116.03
2023-01-29T03:01:59.924Z,103122.81
2023-01-29T03:04:32.982Z,103113.47
2023-01-29T03:07:22.424Z,103108.31
2023-01-29T03:09:52.642Z,103103.19
2023-01-29T03:12:33.823Z,103103.19
2023-01-29T03:15:15.961Z,103099.81
2023-01-29T03:17:47.570Z,103099.81
2023-01-29T03:20:20.665Z,103091.25
2023-01-29T03:22:53.385Z,103085.31
2023-01-29T03:25:44.351Z,103086.97
2023-01-29T03:28:34.181Z,103080.16
2023-01-29T03:31:23.314Z,103082.75
2023-01-29T03:33:54.509Z,103071.66
2023-01-29T03:36:39.788Z,103072.47
2023-01-29T03:39:08.596Z,103059.66
2023-01-29T03:41:40.812Z,103051.19
2023-01-29T03:44:18.115Z,103059.78
2023-01-29T03:47:00.412Z,103050.44
2023-01-29T03:49:41.541Z,103047.03
2023-01-29T03:52:34.914Z,103038.53
2023-01-29T03:55:15.149Z,103047.97
2023-01-29T03:57:58.564Z,103049.69
2023-01-29T04:00:52.545Z,103045.47
2023-01-29T04:03:28.988Z,103044.53
2023-01-29T04:06:05.479Z,103047.09
2023-01-29T04:08:38.732Z,103035.94
2023-01-29T04:11:12.699Z,103034.28
2023-01-29T04:13:40.095Z,103026.59
2023-01-29T04:16:12.672Z,103023.13
2023-01-29T04:18:39.394Z,103031.66
2023-01-29T04:21:07.361Z,103030.00
2023-01-29T04:23:34.224Z,103018.88
2023-01-29T04:26:30.364Z,103026.59
2023-01-29T04:29:20.319Z,103022.38
2023-01-29T04:32:08.127Z,103020.63
2023-01-29T04:34:59.539Z,103016.41
2023-01-29T04:37:50.027Z,103015.56
2023-01-29T04:40:28.705Z,103015.56
2023-01-29T04:43:02.228Z,103012.19
2023-01-29T04:45:44.682Z,103012.25
2023-01-29T04:48:25.823Z,103015.72
2023-01-29T04:51:10.309Z,103006.34
2023-01-29T04:54:14.357Z,102994.44
2023-01-29T04:56:43.940Z,102995.34
2023-01-29T04:59:20.792Z,102999.72
2023-01-29T05:01:48.792Z,102990.28
2023-01-29T05:04:20.416Z,102990.38
2023-01-29T05:06:47.765Z,102993.78
2023-01-29T05:09:17.151Z,102988.72
2023-01-29T05:11:47.151Z,102996.41
2023-01-29T05:14:16.956Z,102985.31
2023-01-29T05:16:47.507Z,102989.53
2023-01-29T05:19:16.140Z,102992.09
2023-01-29T05:21:46.067Z,102988.72
2023-01-29T05:24:15.949Z,102985.31
2023-01-29T05:27:03.058Z,102994.81
2023-01-29T05:29:29.460Z,103003.34
2023-01-29T05:31:55.907Z,103014.53
2023-01-29T05:34:22.507Z,103007.56
2023-01-29T05:36:48.894Z,103005.91
2023-01-29T05:39:15.344Z,103008.47
2023-01-29T05:41:41.847Z,103009.38
2023-01-29T05:44:10.558Z,103009.38
2023-01-29T05:46:37.826Z,103007.72
2023-01-29T05:49:05.005Z,103013.66
2023-01-29T05:51:31.847Z,103011.94
2023-01-29T05:53:58.268Z,103004.25
2023-01-29T05:56:25.403Z,102998.28
2023-01-29T05:58:52.740Z,102988.13
2023-01-29T06:01:21.731Z,102986.44
2023-01-29T06:03:48.831Z,102976.19
2023-01-29T06:06:15.448Z,102964.25
2023-01-29T06:08:42.003Z,102970.25
2023-01-29T06:11:10.430Z,102972.03
2023-01-29T06:13:37.170Z,102957.50
2023-01-29T06:16:08.568Z,102962.69
2023-01-29T06:18:35.934Z,102965.34
2023-01-29T06:21:06.828Z,102963.66
2023-01-29T06:23:33.698Z,102964.56
2023-01-29T06:26:06.777Z,102963.66
2023-01-29T06:28:33.352Z,102956.88
2023-01-29T06:31:20.021Z,102945.78
2023-01-29T06:33:48.596Z,102947.47
2023-01-29T06:36:14.993Z,102950.84
2023-01-29T06:38:41.365Z,102940.59
2023-01-29T06:41:12.752Z,102940.50
2023-01-29T06:43:39.647Z,102943.97
2023-01-29T06:46:08.167Z,102955.91
2023-01-29T06:48:35.216Z,102958.38
2023-01-29T06:51:08.737Z,102957.56
2023-01-29T06:53:36.376Z,102949.81
2023-01-29T06:56:03.605Z,102948.94
2023-01-29T06:58:29.982Z,102952.38
2023-01-29T07:01:06.774Z,102943.75
2023-01-29T07:03:33.299Z,102942.84
2023-01-29T07:06:00.145Z,102946.31
2023-01-29T07:08:26.583Z,102942.03
2023-01-29T07:10:53.103Z,102944.59
2023-01-29T07:13:19.499Z,102954.78
2023-01-29T07:15:46.196Z,102944.53
2023-01-29T07:18:12.613Z,102945.41
2023-01-29T07:20:40.923Z,102939.47
2023-01-29T07:23:10.931Z,102946.22
2023-01-29T07:25:37.571Z,102953.03
2023-01-29T07:28:04.223Z,102944.53
2023-01-29T07:30:31.074Z,102944.53
2023-01-29T07:33:08.141Z,102943.66
2023-01-29T07:35:43.013Z,102941.09
2023-01-29T07:38:11.093Z,102948.81
2023-01-29T07:40:37.534Z,102937.78
2023-01-29T07:43:06.437Z,102941.19
2023-01-29T07:45:35.536Z,102935.22
2023-01-29T07:48:04.817Z,102928.28
2023-01-29T07:50:32.675Z,102929.13
2023-01-29T07:52:59.091Z,102929.88
2023-01-29T07:55:25.683Z,102922.19
2023-01-29T07:57:59.885Z,102919.63
2023-01-29T08:00:26.478Z,102911.00
2023-01-29T08:02:52.858Z,102910.94
2023-01-29T08:05:19.708Z,102914.34
2023-01-29T08:07:51.528Z,102905.72
2023-01-29T08:10:28.160Z,102904.00
2023-01-29T08:12:59.862Z,102908.13
2023-01-29T08:15:26.640Z,102901.19
2023-01-29T08:17:58.120Z,102902.78
2023-01-29T08:20:25.521Z,102904.44
2023-01-29T08:22:59.362Z,102901.81
2023-01-29T08:25:26.143Z,102908.50
2023-01-29T08:27:52.888Z,102902.47
2023-01-29T08:30:19.287Z,102901.47
2023-01-29T08:32:45.648Z,102900.50
2023-01-29T08:35:12.069Z,102881.56
2023-01-29T08:37:38.444Z,102884.03
2023-01-29T08:40:05.380Z,102874.53
2023-01-29T08:42:31.765Z,102877.84
2023-01-29T08:44:58.151Z,102872.63
2023-01-29T08:47:24.572Z,102871.72
2023-01-29T08:49:50.967Z,102864.69
2023-01-29T08:52:17.396Z,102874.78
2023-01-29T08:54:43.816Z,102872.16
2023-01-29T08:57:10.263Z,102869.50
2023-01-29T08:59:36.605Z,102875.38
2023-01-29T09:02:03.092Z,102865.84
2023-01-29T09:04:29.503Z,102874.31
2023-01-29T09:06:55.866Z,102862.22
2023-01-29T09:09:22.237Z,102863.78
2023-01-29T09:11:48.658Z,102860.31
2023-01-29T09:14:15.061Z,102869.59
2023-01-29T09:16:41.499Z,102865.13
2023-01-29T09:19:08.342Z,102865.06
2023-01-29T09:21:34.958Z,102862.31
2023-01-29T09:24:01.330Z,102858.91
2023-01-29T09:26:27.732Z,102866.53
2023-01-29T09:28:55.368Z,102868.03
2023-01-29T09:31:21.822Z,102865.22
2023-01-29T09:33:48.369Z,102873.66
2023-01-29T09:36:14.715Z,102871.00
2023-01-29T09:38:41.075Z,102875.16
2023-01-29T09:41:29.360Z,102869.84
2023-01-29T09:44:00.934Z,102868.94
2023-01-29T09:46:36.842Z,102867.03
2023-01-29T09:49:11.268Z,102865.78
2023-01-29T09:51:41.861Z,102866.38
2023-01-29T09:54:27.390Z,102867.19
2023-01-29T09:56:56.888Z,102870.31
2023-01-29T09:59:31.332Z,102865.88
2023-01-29T10:01:57.750Z,102863.22
2023-01-29T10:04:32.773Z,102865.69
2023-01-29T10:07:21.835Z,102856.97
2023-01-29T10:10:26.599Z,102861.22
2023-01-29T10:12:58.742Z,102850.94
2023-01-29T10:15:33.855Z,102856.00
2023-01-29T10:18:06.565Z,102846.53
2023-01-29T10:20:41.757Z,102845.63
2023-01-29T10:23:17.176Z,102843.22
2023-01-29T10:25:45.352Z,102844.13
2023-01-29T10:28:20.140Z,102844.13
2023-01-29T10:30:50.484Z,102838.16
2023-01-29T10:33:49.035Z,102826.22
2023-01-29T10:36:32.479Z,102827.06
2023-01-29T10:38:59.008Z,102819.25
2023-01-29T10:41:40.810Z,102814.03
2023-01-29T10:44:29.950Z,102812.13
2023-01-29T10:47:01.444Z,102808.38
2023-01-29T10:49:40.140Z,102801.31
2023-01-29T10:52:24.791Z,102793.41
2023-01-29T10:55:06.476Z,102805.28
2023-01-29T10:58:03.655Z,102801.78
2023-01-29T11:00:39.218Z,102800.06
2023-01-29T11:03:27.421Z,102780.31
2023-01-29T11:06:39.913Z,102788.84
2023-01-29T11:12:16.903Z,102768.84
2023-01-29T11:14:52.910Z,102772.41
2023-01-29T11:17:23.844Z,102762.88
2023-01-29T11:19:52.119Z,102773.91
2023-01-29T11:22:19.950Z,102761.88
2023-01-29T11:25:06.640Z,102761.78
2023-01-29T11:27:35.525Z,102763.41
2023-01-29T11:30:02.479Z,102758.28
2023-01-29T11:32:33.681Z,102758.28
2023-01-29T11:35:06.168Z,102752.22
2023-01-29T11:38:45.460Z,102749.66
2023-01-29T11:41:22.256Z,102749.66
2023-01-29T11:43:48.620Z,102746.19
2023-01-29T11:46:16.094Z,102741.13
2023-01-29T11:48:51.427Z,102737.53
2023-01-29T11:51:25.750Z,102731.66
2023-01-29T11:54:04.335Z,102736.72
2023-01-29T11:56:42.106Z,102735.81
2023-01-29T11:59:25.346Z,102728.09
2023-01-29T12:01:51.966Z,102719.53
2023-01-29T12:04:26.365Z,102719.53
2023-01-29T12:06:54.431Z,102713.56
2023-01-29T12:09:24.224Z,102705.03
2023-01-29T12:11:52.564Z,102705.03
2023-01-29T12:14:34.142Z,102692.00
2023-01-29T12:17:13.849Z,102694.66
2023-01-29T12:19:45.965Z,102687.06
2023-01-29T12:22:22.172Z,102677.59
2023-01-29T12:25:07.427Z,102675.81
2023-01-29T12:27:41.801Z,102675.91
2023-01-29T12:30:19.723Z,102664.81
2023-01-29T12:32:55.428Z,102660.41
2023-01-29T12:35:28.437Z,102656.00
2023-01-29T12:38:03.765Z,102661.06
2023-01-29T12:40:38.215Z,102654.06
2023-01-29T12:43:13.176Z,102648.00
2023-01-29T12:45:41.860Z,102636.00
2023-01-29T12:48:16.610Z,102631.66
2023-01-29T12:50:43.087Z,102620.66
2023-01-29T12:53:35.082Z,102617.25
2023-01-29T12:56:26.661Z,102614.56
2023-01-29T12:58:56.129Z,102606.03
2023-01-29T13:01:31.160Z,102593.09
2023-01-29T13:04:11.649Z,102580.31
2023-01-29T13:06:45.223Z,102571.63
2023-01-29T13:09:25.632Z,102569.13
2023-01-29T13:12:11.299Z,102553.72
2023-01-29T13:14:59.073Z,102551.22
2023-01-29T13:17:36.282Z,102541.84
2023-01-29T13:20:33.952Z,102535.63
2023-01-29T13:23:20.671Z,102524.09
2023-01-29T13:25:51.334Z,102518.47
2023-01-29T13:28:20.535Z,102506.88
2023-01-29T13:30:47.557Z,102507.31
2023-01-29T13:33:23.091Z,102502.69
2023-01-29T13:35:59.146Z,102511.03
2023-01-29T13:38:30.683Z,102497.69
2023-01-29T13:41:03.068Z,102500.16
2023-01-29T13:43:48.308Z,102497.69
2023-01-29T13:46:21.490Z,102501.06
2023-01-29T13:48:50.822Z,102494.16
2023-01-29T13:51:21.860Z,102497.38
2023-01-29T13:54:02.362Z,102495.72
2023-01-29T13:56:34.879Z,102498.41
2023-01-29T13:59:03.259Z,102494.06
2023-01-29T14:01:48.062Z,102495.63
2023-01-29T14:04:21.632Z,102486.13
2023-01-29T14:06:50.725Z,102485.22
2023-01-29T14:09:38.704Z,102495.41
2023-01-29T14:12:25.105Z,102491.09
2023-01-29T14:15:04.442Z,102482.47
2023-01-29T14:17:31.036Z,102477.41
2023-01-29T14:20:18.978Z,102479.69
2023-01-29T14:22:56.367Z,102467.63
2023-01-29T14:25:30.115Z,102470.09
2023-01-29T14:27:58.709Z,102466.63
2023-01-29T14:30:27.810Z,102478.44
2023-01-29T14:32:54.711Z,102470.72
2023-01-29T14:35:24.441Z,102463.59
2023-01-29T14:37:53.750Z,102460.94
2023-01-29T14:40:20.245Z,102444.66
2023-01-29T14:43:27.842Z,102440.44
2023-01-29T14:45:54.326Z,102450.13
2023-01-29T14:48:45.933Z,102445.06
2023-01-29T14:51:17.957Z,102447.66
2023-01-29T14:53:52.903Z,102440.78
2023-01-29T14:56:24.419Z,102442.50
2023-01-29T14:59:14.589Z,102446.84
2023-01-29T15:01:47.752Z,102428.81
2023-01-29T15:04:21.440Z,102433.25
2023-01-29T15:07:12.108Z,102413.47
2023-01-29T15:09:46.460Z,102415.25
2023-01-29T15:12:15.835Z,102405.75
2023-01-29T15:14:52.320Z,102410.81
2023-01-29T15:17:25.828Z,102408.22
2023-01-29T15:19:52.861Z,102408.34
2023-01-29T15:22:21.734Z,102413.47
2023-01-29T15:25:03.868Z,102411.00
2023-01-29T15:27:30.956Z,102416.34
2023-01-29T15:30:00.805Z,102406.78
2023-01-29T15:32:33.245Z,102402.69
2023-01-29T15:35:00.468Z,102400.09
2023-01-29T15:37:29.957Z,102390.81
2023-01-29T15:39:58.435Z,102387.53
2023-01-29T15:42:27.425Z,102388.34
2023-01-29T15:44:54.607Z,102385.06
2023-01-29T15:47:25.540Z,102387.75
2023-01-29T15:49:52.663Z,102380.03
2023-01-29T15:52:25.878Z,102374.16
2023-01-29T15:54:52.972Z,102381.03
2023-01-29T15:57:23.810Z,102376.00
2023-01-29T15:59:52.483Z,102376.13
2023-01-29T16:02:35.761Z,102379.63
2023-01-29T16:05:03.552Z,102382.19
2023-01-29T16:07:30.135Z,102379.81
2023-01-29T16:09:57.411Z,102387.53
2023-01-29T16:12:24.475Z,102391.13
2023-01-29T16:14:51.594Z,102382.69
2023-01-29T16:17:24.368Z,102392.28
2023-01-29T16:19:58.600Z,102381.47
2023-01-29T16:22:29.291Z,102381.06
2023-01-29T16:24:55.950Z,102388.22
2023-01-29T16:27:24.968Z,102393.69
2023-01-29T16:29:51.683Z,102383.63
2023-01-29T16:32:20.190Z,102390.59
2023-01-29T16:34:52.971Z,102388.94
2023-01-29T16:37:35.676Z,102382.16
2023-01-29T16:40:14.150Z,102371.16
2023-01-29T16:42:41.574Z,102360.97
2023-01-29T16:45:29.272Z,102363.75
2023-01-29T16:48:01.786Z,102362.09
2023-01-29T16:50:35.899Z,102360.44
2023-01-29T16:53:20.798Z,102364.84
2023-01-29T16:55:49.615Z,102364.03
2023-01-29T16:58:18.999Z,102358.06
2023-01-29T17:00:49.214Z,102354.78
2023-01-29T17:03:18.065Z,102350.56
2023-01-29T17:05:45.419Z,102349.00
2023-01-29T17:08:23.697Z,102358.56
2023-01-29T17:10:50.222Z,102355.19
2023-01-29T17:13:42.668Z,102354.53
2023-01-29T17:16:27.293Z,102364.00
2023-01-29T17:18:53.977Z,102349.63
2023-01-29T17:21:20.529Z,102348.88
2023-01-29T17:23:46.972Z,102335.22
2023-01-29T17:26:14.675Z,102343.84
2023-01-29T17:28:41.606Z,102343.94
2023-01-29T17:31:08.533Z,102334.59
2023-01-29T17:33:38.085Z,102332.84
2023-01-29T17:36:04.792Z,102328.72
2023-01-29T17:38:32.134Z,102337.34
2023-01-29T17:41:04.713Z,102339.13
2023-01-29T17:43:31.136Z,102328.00
2023-01-29T17:45:57.582Z,102315.25
2023-01-29T17:48:26.885Z,102310.94
2023-01-29T17:50:57.044Z,102311.03
2023-01-29T17:53:26.505Z,102302.50
2023-01-29T17:55:57.232Z,102295.72
2023-01-29T17:58:26.865Z,102295.72
2023-01-29T18:00:54.291Z,102289.66
2023-01-29T18:03:22.320Z,102293.97
2023-01-29T18:05:50.078Z,102276.78
2023-01-29T18:08:20.468Z,102279.38
2023-01-29T18:10:47.119Z,102278.56
2023-01-29T18:13:14.091Z,102273.31
2023-01-29T18:15:40.763Z,102277.53
2023-01-29T18:18:14.828Z,102264.69
2023-01-29T18:20:41.424Z,102260.38
2023-01-29T18:23:08.487Z,102261.19
2023-01-29T18:25:35.319Z,102266.31
2023-01-29T18:28:02.482Z,102256.88
2023-01-29T18:30:29.028Z,102251.63
2023-01-29T18:32:55.486Z,102247.31
2023-01-29T18:35:22.126Z,102242.09
2023-01-29T18:37:48.583Z,102247.22
2023-01-29T18:40:17.318Z,102239.41
2023-01-29T18:42:44.989Z,102225.63
2023-01-29T18:45:12.231Z,102216.19
2023-01-29T18:47:39.344Z,102201.56
2023-01-29T18:50:07.261Z,102191.31
2023-01-29T18:52:34.312Z,102197.16
2023-01-29T18:55:03.495Z,102207.44
2023-01-29T18:58:33.918Z,102185.16
2023-01-29T19:00:16.910Z,102184.19
2023-01-29T19:02:44.986Z,102185.84
2023-01-29T19:05:11.621Z,102181.63
2023-01-29T19:07:42.115Z,102171.34
2023-01-29T19:10:12.471Z,102158.50
2023-01-29T19:12:42.379Z,102162.72
2023-01-29T19:15:10.256Z,102158.50
2023-01-29T19:17:36.937Z,102152.53
2023-01-29T19:20:04.707Z,102145.66
2023-01-29T19:22:32.106Z,102143.91
2023-01-29T19:24:58.501Z,102166.91
2023-01-29T19:27:26.106Z,102168.56
2023-01-29T19:29:52.766Z,102169.28
2023-01-29T19:32:19.163Z,102151.28
2023-01-29T19:34:45.635Z,102145.34
2023-01-29T19:37:12.010Z,102143.47
2023-01-29T19:39:38.442Z,102152.84
2023-01-29T19:42:04.970Z,102148.50
2023-01-29T19:44:31.347Z,102133.09
2023-01-29T19:46:57.858Z,102139.88
2023-01-29T19:49:25.055Z,102145.84
2023-01-29T19:51:51.458Z,102146.69
2023-01-29T19:54:18.235Z,102144.94
2023-01-29T19:56:44.597Z,102126.13
2023-01-29T19:59:11.484Z,102123.56
2023-01-29T20:01:38.292Z,102131.25
2023-01-29T20:04:05.930Z,102127.75
2023-01-29T20:06:32.378Z,102126.94
2023-01-29T20:09:02.063Z,102137.09
2023-01-29T20:11:29.012Z,102131.03
2023-01-29T20:13:55.478Z,102122.41
2023-01-29T20:16:22.512Z,102114.69
2023-01-29T20:18:49.218Z,102126.63
2023-01-29T20:21:18.080Z,102121.47
2023-01-29T20:23:45.926Z,102113.66
2023-01-29T20:26:14.871Z,102125.66
2023-01-29T20:28:42.264Z,102117.03
2023-01-29T20:31:09.991Z,102126.50
2023-01-29T20:33:39.160Z,102103.28
2023-01-29T20:36:08.975Z,102089.47
2023-01-29T20:38:35.869Z,102097.19
2023-01-29T20:41:10.640Z,102115.91
2023-01-29T20:43:37.131Z,102120.91
2023-01-29T20:46:04.256Z,102114.06
2023-01-29T20:48:31.462Z,102097.78
2023-01-29T20:51:07.886Z,102100.25
2023-01-29T20:53:34.403Z,102100.16
2023-01-29T20:56:03.183Z,102118.03
2023-01-29T20:58:30.545Z,102107.66
2023-01-29T21:00:56.925Z,102095.53
2023-01-29T21:03:23.355Z,102094.56
2023-01-29T21:05:50.308Z,102090.97
2023-01-29T21:08:16.920Z,102091.69
2023-01-29T21:10:45.093Z,102090.78
2023-01-29T21:13:12.263Z,102106.91
2023-01-29T21:15:38.713Z,102109.25
2023-01-29T21:18:06.469Z,102104.81
2023-01-29T21:20:33.008Z,102103.81
2023-01-29T21:22:59.553Z,102090.84
2023-01-29T21:25:25.939Z,102105.22
2023-01-29T21:27:52.316Z,102111.19
2023-01-29T21:30:19.278Z,102112.72
2023-01-29T21:32:46.386Z,102097.06
2023-01-29T21:35:12.992Z,102097.75
2023-01-29T21:37:39.444Z,102095.09
2023-01-29T21:40:07.121Z,102106.00
2023-01-29T21:42:52.039Z,102099.09
2023-01-29T21:45:20.406Z,102102.16
2023-01-29T21:47:46.919Z,102055.41
2023-01-29T21:50:13.350Z,102050.03
2023-01-29T21:52:39.773Z,102034.59
2023-01-29T21:55:06.770Z,102025.91
2023-01-29T21:57:33.404Z,102006.88
2023-01-29T21:59:59.844Z,101996.47
2023-01-29T22:02:27.690Z,101979.97
2023-01-29T22:05:08.731Z,101967.81
2023-01-29T22:07:44.235Z,101962.09
2023-01-29T22:10:12.064Z,101969.91
2023-01-29T22:12:38.963Z,101954.47
2023-01-29T22:15:07.187Z,101969.81
2023-01-29T22:17:33.997Z,101990.97
2023-01-29T22:20:00.408Z,101985.72
2023-01-29T22:22:26.885Z,101982.91
2023-01-29T22:24:55.064Z,101964.78
2023-01-29T22:27:21.524Z,101951.81
2023-01-29T22:29:47.921Z,101962.81
2023-01-29T22:32:14.344Z,101956.69
2023-01-29T22:34:40.768Z,101965.03
2023-01-29T22:37:07.185Z,101966.53
2023-01-29T22:39:33.530Z,101949.09
2023-01-29T22:41:59.927Z,101932.72
2023-01-29T22:44:26.378Z,101929.22
2023-01-29T22:46:52.793Z,101940.22
2023-01-29T22:49:19.573Z,101917.84
2023-01-29T22:51:47.031Z,101902.19
2023-01-29T22:54:15.413Z,101910.59
2023-01-29T22:56:41.963Z,101902.75
2023-01-29T22:59:09.968Z,101914.47
2023-01-29T23:01:36.380Z,101910.84
2023-01-29T23:04:02.738Z,101936.47
2023-01-29T23:06:29.131Z,101935.53
2023-01-29T23:08:55.580Z,101919.84
2023-01-29T23:11:23.434Z,101917.16
2023-01-29T23:13:52.498Z,101906.63
2023-01-29T23:16:20.716Z,101914.91
2023-01-29T23:18:50.993Z,101902.72
2023-01-29T23:21:18.107Z,101894.75
2023-01-29T23:23:45.211Z,101906.72
2023-01-29T23:26:31.382Z,101909.16
2023-01-29T23:28:59.283Z,101884.78
2023-01-29T23:31:26.531Z,101871.66
2023-01-29T23:33:53.077Z,101872.38
2023-01-29T23:36:19.505Z,101863.56
2023-01-29T23:38:45.968Z,101847.50
2023-01-29T23:41:12.372Z,101855.44
2023-01-29T23:43:38.763Z,101837.84
2023-01-29T23:46:05.297Z,101814.28
2023-01-29T23:48:31.764Z,101837.13
2023-01-29T23:50:58.186Z,101840.50
2023-01-29T23:53:24.646Z,101824.91
2023-01-29T23:56:02.644Z,101842.81
2023-01-29T23:58:29.797Z,101834.03
